Time;durP1;ratioP1;P1;durP2;ratioP2;P2;SDS_P1;SDS_P2;PMS_P1;PMS_P2;Temp;Humidity;BMP_temperature;BMP_pressure;BME280_temperature;BME280_humidity;BME280_pressure;Samples;Min_cycle;Max_cycle;Signal;HPM_P1;HPM_P2
2023/07/12 00:01:44;;;;;;;;;;;;;;;25.60;51.21;99469.72;4508171;31;33017;-74
2023/07/12 00:04:13;;;;;;;;;;;;;;;25.58;51.21;99476.09;4498571;31;34727;-74
2023/07/12 00:06:47;;;;;;;;;;;;;;;25.58;51.63;99482.25;4501457;31;34245;-73
2023/07/12 00:09:21;;;;;;;;;;;;;;;25.69;51.04;99479.59;4510518;31;34018;-73
2023/07/12 00:11:50;;;;;;;;;;;;;;;25.73;51.72;99486.38;4511274;31;34018;-75
2023/07/12 00:14:19;;;;;;;;;;;;;;;25.72;51.80;99473.19;4502428;31;33788;-73
2023/07/12 00:16:48;;;;;;;;;;;;;;;25.69;51.35;99466.31;4497133;31;34095;-75
2023/07/12 00:19:17;;;;;;;;;;;;;;;25.62;51.47;99461.63;4499428;31;33260;-73
2023/07/12 00:21:50;;;;;;;;;;;;;;;25.58;51.21;99465.47;4497045;31;34866;-74
2023/07/12 00:24:18;;;;;;;;;;;;;;;25.63;51.12;99468.63;4509112;31;34940;-75
2023/07/12 00:26:53;;;;;;;;;;;;;;;25.65;50.60;99479.97;4503546;31;34659;-74
2023/07/12 00:29:28;;;;;;;;;;;;;;;25.63;50.63;99476.59;4494178;31;34157;-74
2023/07/12 00:31:57;;;;;;;;;;;;;;;25.54;51.17;99479.00;4503033;31;34305;-74
2023/07/12 00:34:28;;;;;;;;;;;;;;;25.39;51.30;99468.75;4500378;31;35181;-73
2023/07/12 00:36:57;;;;;;;;;;;;;;;25.54;50.76;99471.03;4499684;31;35300;-72
2023/07/12 00:39:29;;;;;;;;;;;;;;;25.85;48.61;99467.75;4494696;31;33481;-73
2023/07/12 00:42:00;;;;;;;;;;;;;;;25.46;49.93;99465.47;4507738;31;33788;-74
2023/07/12 00:44:30;;;;;;;;;;;;;;;25.42;50.92;99461.38;4503295;31;35035;-74
2023/07/12 00:46:59;;;;;;;;;;;;;;;25.60;50.83;99461.75;4494241;31;34954;-74
2023/07/12 00:49:29;;;;;;;;;;;;;;;25.73;51.32;99458.94;4500258;31;33782;-73
2023/07/12 00:52:02;;;;;;;;;;;;;;;25.57;51.45;99464.66;4494838;31;34304;-77
2023/07/12 00:54:46;;;;;;;;;;;;;;;25.66;51.42;99463.91;4504306;31;33864;-73
2023/07/12 00:57:16;;;;;;;;;;;;;;;25.58;51.45;99458.34;4498054;31;33779;-73
2023/07/12 00:59:45;;;;;;;;;;;;;;;25.57;51.39;99463.81;4500005;31;33045;-74
2023/07/12 01:02:14;;;;;;;;;;;;;;;25.62;51.28;99458.97;4499459;31;33736;-74
2023/07/12 01:04:44;;;;;;;;;;;;;;;25.69;50.96;99454.84;4482144;31;33928;-74
2023/07/12 01:07:22;;;;;;;;;;;;;;;25.73;51.20;99445.66;4495369;31;33933;-75
2023/07/12 01:09:51;;;;;;;;;;;;;;;25.66;50.90;99433.81;4494423;31;33129;-73
2023/07/12 01:12:27;;;;;;;;;;;;;;;25.72;51.32;99425.38;4499822;31;33850;-74
2023/07/12 01:15:04;;;;;;;;;;;;;;;25.69;51.08;99421.16;4495139;31;34984;-73
2023/07/12 01:17:33;;;;;;;;;;;;;;;25.57;51.43;99419.50;4507202;31;33955;-74
2023/07/12 01:20:04;;;;;;;;;;;;;;;25.55;51.16;99424.06;4510279;31;33068;-74
2023/07/12 01:22:37;;;;;;;;;;;;;;;25.68;50.86;99423.94;4503460;31;34658;-75
2023/07/12 01:25:13;;;;;;;;;;;;;;;25.77;49.89;99417.88;4499361;31;34649;-73
2023/07/12 01:27:42;;;;;;;;;;;;;;;25.68;50.68;99408.00;4494133;31;33976;-74
2023/07/12 01:30:18;;;;;;;;;;;;;;;25.49;49.32;99404.16;4494236;31;33074;-75
2023/07/12 01:32:48;;;;;;;;;;;;;;;25.20;50.50;99414.44;4498413;31;33991;-73
2023/07/12 01:35:17;;;;;;;;;;;;;;;25.40;48.45;99407.56;4496161;31;33602;-73
2023/07/12 01:37:50;;;;;;;;;;;;;;;25.21;48.03;99409.97;4499657;31;34661;-74
2023/07/12 01:40:20;;;;;;;;;;;;;;;25.38;47.14;99420.09;4492572;31;33270;-74
2023/07/12 01:42:49;;;;;;;;;;;;;;;25.31;47.84;99418.91;4493264;31;33768;-73
2023/07/12 01:45:19;;;;;;;;;;;;;;;25.02;47.19;99414.00;4498859;31;35250;-73
2023/07/12 01:47:49;;;;;;;;;;;;;;;25.09;48.05;99420.53;4499304;31;33776;-76
2023/07/12 01:50:20;;;;;;;;;;;;;;;25.30;47.18;99425.19;4494681;31;32982;-74
2023/07/12 01:52:54;;;;;;;;;;;;;;;25.54;46.18;99427.72;4498333;31;33787;-75
2023/07/12 01:55:23;;;;;;;;;;;;;;;25.38;46.37;99433.38;4498787;31;33406;-73
2023/07/12 01:57:56;;;;;;;;;;;;;;;25.62;45.93;99430.59;4494361;31;33930;-74
2023/07/12 02:00:27;;;;;;;;;;;;;;;25.63;46.56;99428.75;4499342;31;34036;-73
2023/07/12 02:02:57;;;;;;;;;;;;;;;25.64;45.14;99436.63;4494756;31;34525;-73
2023/07/12 02:05:26;;;;;;;;;;;;;;;25.57;45.70;99431.94;4503239;31;34205;-73
2023/07/12 02:08:03;;;;;;;;;;;;;;;25.39;46.01;99436.87;4494699;31;33853;-72
2023/07/12 02:10:31;;;;;;;;;;;;;;;25.42;45.85;99434.84;4496657;31;33907;-75
2023/07/12 02:13:01;;;;;;;;;;;;;;;25.40;46.45;99435.91;4498881;31;34451;-74
2023/07/12 02:15:30;;;;;;;;;;;;;;;25.73;44.52;99429.72;4495846;31;34658;-73
2023/07/12 02:17:59;;;;;;;;;;;;;;;25.82;45.12;99420.16;4494900;31;34821;-75
2023/07/12 02:20:28;;;;;;;;;;;;;;;25.45;46.16;99423.13;4494573;31;33020;-74
2023/07/12 02:22:57;;;;;;;;;;;;;;;25.50;46.14;99424.44;4499988;31;34493;-73
2023/07/12 02:25:28;;;;;;;;;;;;;;;25.24;46.96;99417.69;4498456;31;34837;-74
2023/07/12 02:28:04;;;;;;;;;;;;;;;24.91;46.70;99408.69;4493541;31;33390;-75
2023/07/12 02:30:32;;;;;;;;;;;;;;;25.29;45.50;99402.22;4494752;31;33434;-75
2023/07/12 02:35:36;;;;;;;;;;;;;;;25.25;45.35;99384.84;4499441;31;33773;-76
2023/07/12 02:38:04;;;;;;;;;;;;;;;25.60;45.76;99394.50;4495066;31;34139;-74
2023/07/12 02:40:35;;;;;;;;;;;;;;;25.24;45.63;99388.47;4494506;31;33526;-74
2023/07/12 02:43:03;;;;;;;;;;;;;;;25.07;46.03;99393.25;4496375;31;34943;-75
2023/07/12 02:45:35;;;;;;;;;;;;;;;25.07;45.91;99395.91;4499246;31;34047;-75
2023/07/12 02:48:11;;;;;;;;;;;;;;;25.03;46.58;99394.50;4496013;31;34638;-76
2023/07/12 02:50:40;;;;;;;;;;;;;;;25.00;45.92;99397.38;4494433;31;33464;-75
2023/07/12 02:53:14;;;;;;;;;;;;;;;24.69;47.49;99397.09;4496967;31;34359;-74
2023/07/12 02:55:44;;;;;;;;;;;;;;;24.77;47.32;99393.84;4500222;31;35556;-74
2023/07/12 02:58:20;;;;;;;;;;;;;;;25.00;47.16;99391.22;4498484;31;34537;-73
2023/07/12 03:00:56;;;;;;;;;;;;;;;25.26;45.62;99391.87;4493314;31;33155;-74
2023/07/12 03:03:25;;;;;;;;;;;;;;;25.30;45.80;99382.69;4493510;31;33839;-75
2023/07/12 03:05:55;;;;;;;;;;;;;;;24.96;47.01;99373.84;4494325;31;33331;-74
2023/07/12 03:08:24;;;;;;;;;;;;;;;25.28;46.24;99371.34;4494225;31;33734;-75
2023/07/12 03:11:02;;;;;;;;;;;;;;;25.25;45.79;99369.78;4502921;31;32508;-75
2023/07/12 03:13:31;;;;;;;;;;;;;;;25.34;45.81;99371.69;4496263;31;37576;-75
2023/07/12 03:16:08;;;;;;;;;;;;;;;25.06;46.12;99370.34;4496950;31;33730;-74
2023/07/12 03:18:37;;;;;;;;;;;;;;;24.90;46.66;99369.84;4493882;31;34022;-74
2023/07/12 03:21:11;;;;;;;;;;;;;;;24.82;47.47;99383.72;4498166;31;33443;-76
2023/07/12 03:23:41;;;;;;;;;;;;;;;24.74;46.92;99386.09;4498116;31;34997;-73
2023/07/12 03:26:11;;;;;;;;;;;;;;;24.98;47.26;99388.66;4498318;31;34295;-74
2023/07/12 03:31:15;;;;;;;;;;;;;;;25.22;47.00;99393.91;4493610;31;33926;-75
2023/07/12 03:33:45;;;;;;;;;;;;;;;25.09;46.65;99390.50;4498806;31;34368;-74
2023/07/12 03:36:14;;;;;;;;;;;;;;;25.26;46.36;99387.38;4494747;31;34314;-74
2023/07/12 03:38:43;;;;;;;;;;;;;;;25.51;45.55;99385.44;4493480;31;34821;-73
2023/07/12 03:41:15;;;;;;;;;;;;;;;25.19;46.50;99391.50;4461800;31;1094578;-74
2023/07/12 03:43:48;;;;;;;;;;;;;;;25.45;46.67;99388.59;4504475;31;33866;-75
2023/07/12 03:46:16;;;;;;;;;;;;;;;25.63;45.42;99400.38;4506398;31;34742;-75
2023/07/12 03:48:46;;;;;;;;;;;;;;;25.37;45.42;99389.22;4501499;31;32124;-75
2023/07/12 03:51:17;;;;;;;;;;;;;;;25.40;45.83;99390.78;4495833;31;32323;-75
2023/07/12 03:53:50;;;;;;;;;;;;;;;25.02;46.85;99399.91;4495972;31;34198;-74
2023/07/12 03:56:21;;;;;;;;;;;;;;;25.22;46.68;99409.00;4503696;31;34040;-74
2023/07/12 03:58:56;;;;;;;;;;;;;;;25.51;45.34;99404.88;4495534;31;34985;-74
2023/07/12 04:01:24;;;;;;;;;;;;;;;25.26;47.46;99411.28;4496001;31;33919;-76
2023/07/12 04:03:54;;;;;;;;;;;;;;;25.33;46.49;99395.72;4498234;31;33468;-73
2023/07/12 04:06:22;;;;;;;;;;;;;;;25.38;47.72;99398.84;4496491;31;33607;-75
2023/07/12 04:08:52;;;;;;;;;;;;;;;25.42;47.36;99396.78;4513447;31;34453;-76
2023/07/12 04:11:26;;;;;;;;;;;;;;;25.37;47.88;99402.50;4496485;31;34434;-73
2023/07/12 04:13:56;;;;;;;;;;;;;;;25.62;46.01;99408.50;4496126;31;33522;-74
2023/07/12 04:16:25;;;;;;;;;;;;;;;25.45;46.27;99412.50;4497165;31;35149;-75
2023/07/12 04:18:55;;;;;;;;;;;;;;;25.27;47.41;99409.47;4500873;31;34325;-74
2023/07/12 04:21:26;;;;;;;;;;;;;;;25.48;47.42;99415.75;4495349;31;32846;-74
2023/07/12 04:24:01;;;;;;;;;;;;;;;25.71;47.08;99416.56;4495895;31;33812;-76
2023/07/12 04:26:32;;;;;;;;;;;;;;;25.67;47.52;99417.78;4496705;31;34551;-76
2023/07/12 04:29:08;;;;;;;;;;;;;;;25.74;46.94;99423.44;4496049;31;33642;-74
2023/07/12 04:31:37;;;;;;;;;;;;;;;25.94;46.99;99416.53;4500301;31;33211;-74
2023/07/12 04:34:08;;;;;;;;;;;;;;;26.02;46.92;99400.81;4495772;31;34361;-74
2023/07/12 04:36:36;;;;;;;;;;;;;;;25.93;47.43;99375.84;4495189;31;34786;-74
2023/07/12 04:39:12;;;;;;;;;;;;;;;26.11;45.91;99372.62;4503003;31;33913;-74
2023/07/12 04:41:46;;;;;;;;;;;;;;;26.20;45.88;99386.97;4510278;31;33216;-73
2023/07/12 04:44:15;;;;;;;;;;;;;;;25.71;47.37;99378.53;4502215;31;33904;-76
2023/07/12 04:46:43;;;;;;;;;;;;;;;26.01;46.22;99377.03;4503960;31;35018;-75
2023/07/12 04:49:15;;;;;;;;;;;;;;;26.23;45.60;99360.97;4496238;31;34156;-75
2023/07/12 04:51:49;;;;;;;;;;;;;;;26.26;45.23;99371.34;4507992;31;33776;-75
2023/07/12 04:54:19;;;;;;;;;;;;;;;26.47;45.28;99384.66;4500153;31;34754;-75
2023/07/12 04:57:02;;;;;;;;;;;;;;;27.06;43.84;99390.34;4505131;31;34739;-74
2023/07/12 04:59:31;;;;;;;;;;;;;;;26.95;44.11;99375.31;4497156;31;34333;-75
2023/07/12 05:02:00;;;;;;;;;;;;;;;26.65;44.72;99377.00;4501008;31;34215;-75
2023/07/12 05:04:32;;;;;;;;;;;;;;;27.12;43.58;99393.34;4501799;31;33798;-75
2023/07/12 05:07:02;;;;;;;;;;;;;;;27.02;44.16;99397.78;4504168;31;34364;-74
2023/07/12 05:09:32;;;;;;;;;;;;;;;27.10;43.85;99399.78;4494546;31;34125;-75
2023/07/12 05:12:03;;;;;;;;;;;;;;;27.26;43.26;99394.00;4495097;31;34125;-75
2023/07/12 05:14:34;;;;;;;;;;;;;;;27.11;44.06;99389.00;4496328;31;33273;-76
2023/07/12 05:17:05;;;;;;;;;;;;;;;27.52;43.44;99381.03;4496984;31;34379;-75
2023/07/12 05:19:37;;;;;;;;;;;;;;;27.71;43.03;99391.72;4499635;31;33504;-76
2023/07/12 05:22:06;;;;;;;;;;;;;;;28.25;42.33;99390.44;4494800;31;34253;-75
2023/07/12 05:24:41;;;;;;;;;;;;;;;27.80;42.46;99377.59;4494287;31;34568;-75
2023/07/12 05:27:12;;;;;;;;;;;;;;;28.50;41.12;99377.50;4495110;31;33893;-75
2023/07/12 05:29:41;;;;;;;;;;;;;;;28.50;40.77;99383.69;4505804;31;33711;-76
2023/07/12 05:32:09;;;;;;;;;;;;;;;28.49;41.08;99379.34;4494867;31;33343;-77
2023/07/12 05:34:39;;;;;;;;;;;;;;;28.10;41.75;99367.81;4495864;31;33702;-77
2023/07/12 05:37:09;;;;;;;;;;;;;;;28.75;40.15;99372.53;4495562;31;35020;-75
2023/07/12 05:39:40;;;;;;;;;;;;;;;28.04;41.91;99365.72;4496177;31;33762;-76
2023/07/12 05:42:14;;;;;;;;;;;;;;;27.60;42.24;99366.06;4500000;31;33163;-76
2023/07/12 05:44:43;;;;;;;;;;;;;;;27.34;42.97;99367.53;4498349;31;34865;-75
2023/07/12 05:47:12;;;;;;;;;;;;;;;27.24;43.22;99368.34;4496345;31;34275;-75
2023/07/12 05:49:43;;;;;;;;;;;;;;;27.43;42.44;99370.22;4499799;31;34177;-75
2023/07/12 05:52:13;;;;;;;;;;;;;;;28.11;41.06;99377.50;4504807;31;34108;-75
2023/07/12 05:54:43;;;;;;;;;;;;;;;28.48;40.85;99371.47;4498337;31;33530;-74
2023/07/12 05:57:17;;;;;;;;;;;;;;;28.49;41.07;99367.84;4496540;31;34289;-75
2023/07/12 05:59:46;;;;;;;;;;;;;;;28.46;40.44;99355.63;4494427;31;33431;-76
2023/07/12 06:02:17;;;;;;;;;;;;;;;27.84;41.62;99343.53;4492261;31;33071;-74
2023/07/12 06:04:46;;;;;;;;;;;;;;;27.69;42.29;99336.88;4499336;31;33609;-75
2023/07/12 06:07:19;;;;;;;;;;;;;;;27.71;41.77;99332.25;4495467;31;34552;-74
2023/07/12 06:09:54;;;;;;;;;;;;;;;27.05;42.75;99341.59;4494766;31;35360;-77
2023/07/12 06:12:24;;;;;;;;;;;;;;;27.05;42.93;99346.09;4509761;31;33113;-76
2023/07/12 06:14:54;;;;;;;;;;;;;;;27.33;42.81;99333.84;4510597;31;33953;-76
2023/07/12 06:17:22;;;;;;;;;;;;;;;27.11;43.44;99332.22;4512468;31;34645;-75
2023/07/12 06:19:51;;;;;;;;;;;;;;;26.92;43.95;99333.00;4492734;31;33809;-74
2023/07/12 06:22:22;;;;;;;;;;;;;;;27.51;42.38;99337.56;4493271;31;33193;-76
2023/07/12 06:24:55;;;;;;;;;;;;;;;27.12;43.70;99329.44;4496398;31;33961;-75
2023/07/12 06:27:25;;;;;;;;;;;;;;;27.49;42.99;99323.53;4498441;31;34003;-75
2023/07/12 06:29:59;;;;;;;;;;;;;;;27.62;42.05;99320.63;4494422;31;34425;-74
2023/07/12 06:32:28;;;;;;;;;;;;;;;27.82;41.74;99311.69;4494143;31;32750;-76
2023/07/12 06:34:58;;;;;;;;;;;;;;;27.75;42.29;99305.19;4497757;31;34945;-76
2023/07/12 06:37:28;;;;;;;;;;;;;;;27.85;42.13;99315.87;4495437;31;34470;-74
2023/07/12 06:40:01;;;;;;;;;;;;;;;27.57;42.41;99326.38;4499180;31;33755;-76
2023/07/12 06:42:31;;;;;;;;;;;;;;;27.73;42.37;99335.63;4495526;31;33162;-77
2023/07/12 06:45:02;;;;;;;;;;;;;;;27.92;42.13;99337.50;4499127;31;33108;-75
2023/07/12 06:47:32;;;;;;;;;;;;;;;28.10;41.58;99343.81;4497928;31;33556;-76
2023/07/12 06:50:04;;;;;;;;;;;;;;;28.07;41.76;99334.25;4500830;31;34522;-75
2023/07/12 06:52:32;;;;;;;;;;;;;;;28.34;41.54;99338.03;4496089;31;33406;-76
2023/07/12 06:55:05;;;;;;;;;;;;;;;28.54;40.75;99336.22;4497663;31;33991;-75
2023/07/12 06:57:36;;;;;;;;;;;;;;;28.78;40.82;99333.06;4497214;31;35253;-76
2023/07/12 07:00:08;;;;;;;;;;;;;;;28.74;41.23;99334.34;4496736;31;33982;-76
2023/07/12 07:02:38;;;;;;;;;;;;;;;29.12;40.70;99333.38;4499400;31;32844;-75
2023/07/12 07:05:08;;;;;;;;;;;;;;;29.42;40.45;99335.88;4495783;31;34809;-75
2023/07/12 07:07:37;;;;;;;;;;;;;;;29.73;39.82;99329.25;4497409;31;33165;-75
2023/07/12 07:10:32;;;;;;;;;;;;;;;30.07;39.63;99327.72;4495001;31;33965;-75
2023/07/12 07:13:03;;;;;;;;;;;;;;;29.95;39.41;99319.91;4499414;31;33260;-77
2023/07/12 07:15:32;;;;;;;;;;;;;;;30.39;39.10;99303.06;4507443;31;34874;-74
2023/07/12 07:18:02;;;;;;;;;;;;;;;30.10;39.68;99298.81;4499012;31;34048;-75
2023/07/12 07:20:32;;;;;;;;;;;;;;;30.36;39.65;99284.66;4497727;31;34759;-75
2023/07/12 07:23:03;;;;;;;;;;;;;;;30.38;39.07;99271.97;4495552;31;33426;-77
2023/07/12 07:25:34;;;;;;;;;;;;;;;30.53;39.04;99269.53;4500764;31;34705;-77
2023/07/12 07:28:07;;;;;;;;;;;;;;;30.48;39.52;99274.53;4499380;31;35106;-75
2023/07/12 07:30:37;;;;;;;;;;;;;;;30.61;38.86;99267.75;4494545;31;33972;-75
2023/07/12 07:33:07;;;;;;;;;;;;;;;30.41;38.98;99258.25;4495202;31;33990;-74
2023/07/12 07:35:41;;;;;;;;;;;;;;;30.25;39.60;99252.75;4497210;31;33743;-74
2023/07/12 07:38:13;;;;;;;;;;;;;;;30.13;39.96;99245.00;4500041;31;34818;-76
2023/07/12 07:40:44;;;;;;;;;;;;;;;30.28;40.07;99247.97;4496008;31;33543;-75
2023/07/12 07:43:15;;;;;;;;;;;;;;;30.63;38.67;99236.28;4495218;31;34040;-74
2023/07/12 07:45:45;;;;;;;;;;;;;;;29.88;40.36;99254.66;4496233;31;34314;-75
2023/07/12 07:48:18;;;;;;;;;;;;;;;29.81;39.64;99244.75;4496846;31;33983;-77
2023/07/12 07:50:57;;;;;;;;;;;;;;;30.06;39.22;99243.09;4500924;31;33446;-77
2023/07/12 07:53:35;;;;;;;;;;;;;;;29.69;39.35;99246.81;4501873;31;34148;-75
2023/07/12 07:56:04;;;;;;;;;;;;;;;29.96;39.31;99251.22;4501589;31;33130;-78
2023/07/12 07:58:35;;;;;;;;;;;;;;;29.68;39.91;99240.63;4495324;31;33895;-76
2023/07/12 08:01:12;;;;;;;;;;;;;;;29.96;38.93;99224.47;4497448;31;36330;-75
2023/07/12 08:03:50;;;;;;;;;;;;;;;30.09;39.29;99216.87;4501945;31;33165;-77
2023/07/12 08:06:20;;;;;;;;;;;;;;;30.19;39.82;99214.94;4498945;31;33914;-75
2023/07/12 08:08:50;;;;;;;;;;;;;;;30.76;38.78;99221.59;4496721;31;34087;-77
2023/07/12 08:11:20;;;;;;;;;;;;;;;30.15;39.38;99210.06;4496428;31;33637;-75
2023/07/12 08:13:54;;;;;;;;;;;;;;;30.29;38.99;99200.66;4498596;31;33182;-77
2023/07/12 08:16:27;;;;;;;;;;;;;;;30.20;39.38;99197.91;4501569;31;33450;-75
2023/07/12 08:19:02;;;;;;;;;;;;;;;30.32;39.58;99195.81;4496005;31;35207;-75
2023/07/12 08:21:46;;;;;;;;;;;;;;;30.87;38.80;99188.38;4496205;31;34035;-77
2023/07/12 08:24:16;;;;;;;;;;;;;;;30.73;38.79;99208.53;4495299;31;34287;-75
2023/07/12 08:26:46;;;;;;;;;;;;;;;30.85;38.10;99201.91;4495992;31;34119;-77
2023/07/12 08:29:35;;;;;;;;;;;;;;;30.83;38.70;99204.78;4500057;31;33587;-76
2023/07/12 08:32:04;;;;;;;;;;;;;;;30.27;39.63;99198.13;4498962;31;34785;-76
2023/07/12 08:34:35;;;;;;;;;;;;;;;30.84;39.32;99197.59;4494152;31;32998;-75
2023/07/12 08:37:05;;;;;;;;;;;;;;;31.16;39.42;99194.13;4500108;31;34878;-76
2023/07/12 08:39:34;;;;;;;;;;;;;;;31.26;39.76;99210.06;4499890;31;33238;-77
2023/07/12 08:42:06;;;;;;;;;;;;;;;30.73;38.86;99219.25;4487175;31;33981;-77
2023/07/12 08:44:37;;;;;;;;;;;;;;;31.54;37.23;99225.91;4493754;31;34142;-77
2023/07/12 08:47:09;;;;;;;;;;;;;;;31.45;37.50;99214.31;4497949;31;33201;-76
2023/07/12 08:49:38;;;;;;;;;;;;;;;31.67;37.44;99205.59;4494867;31;34470;-77
2023/07/12 08:52:12;;;;;;;;;;;;;;;31.45;38.26;99204.41;4508384;31;33771;-77
2023/07/12 08:54:40;;;;;;;;;;;;;;;31.57;38.36;99210.28;4498720;31;34150;-77
2023/07/12 08:57:16;;;;;;;;;;;;;;;31.48;39.00;99208.59;4502298;31;32021;-76
2023/07/12 08:59:54;;;;;;;;;;;;;;;31.80;38.72;99221.22;4496549;31;33399;-75
2023/07/12 09:02:23;;;;;;;;;;;;;;;32.39;37.94;99231.69;4499707;31;32803;-75
2023/07/12 09:04:53;;;;;;;;;;;;;;;32.35;37.69;99241.09;4500183;31;33450;-76
2023/07/12 09:07:25;;;;;;;;;;;;;;;32.40;36.61;99238.72;4500922;31;34561;-75
2023/07/12 09:09:56;;;;;;;;;;;;;;;32.47;36.44;99242.41;4495774;31;33346;-75
2023/07/12 09:12:26;;;;;;;;;;;;;;;32.86;38.05;99243.47;4509498;31;34739;-75
2023/07/12 09:14:59;;;;;;;;;;;;;;;32.90;37.21;99248.34;4499533;31;32611;-77
2023/07/12 09:17:28;;;;;;;;;;;;;;;32.84;36.66;99245.53;4501580;31;35000;-77
2023/07/12 09:19:57;;;;;;;;;;;;;;;33.08;36.91;99240.06;4494425;31;33829;-75
2023/07/12 09:22:29;;;;;;;;;;;;;;;33.17;36.84;99238.16;4506621;31;33933;-76
2023/07/12 09:24:59;;;;;;;;;;;;;;;32.96;36.93;99236.06;4497060;31;33850;-76
2023/07/12 09:27:28;;;;;;;;;;;;;;;32.99;36.42;99241.09;4502289;31;34360;-77
2023/07/12 09:30:02;;;;;;;;;;;;;;;33.36;37.36;99248.44;4495154;31;34413;-75
2023/07/12 09:32:33;;;;;;;;;;;;;;;33.49;36.78;99242.50;4511460;31;33982;-77
2023/07/12 09:35:05;;;;;;;;;;;;;;;33.70;35.79;99246.41;4509456;31;33010;-76
2023/07/12 09:37:35;;;;;;;;;;;;;;;33.82;35.87;99258.41;4502901;31;34831;-78
2023/07/12 09:40:04;;;;;;;;;;;;;;;33.78;36.85;99254.37;4498999;31;35064;-77
2023/07/12 09:42:33;;;;;;;;;;;;;;;33.85;36.81;99266.09;4496633;31;34724;-77
2023/07/12 09:45:09;;;;;;;;;;;;;;;33.98;35.84;99271.72;4501405;31;32743;-76
2023/07/12 09:47:40;;;;;;;;;;;;;;;33.62;35.89;99265.31;4496803;31;34695;-76
2023/07/12 09:50:19;;;;;;;;;;;;;;;33.43;35.52;99259.34;4494477;31;33496;-75
2023/07/12 09:52:52;;;;;;;;;;;;;;;33.79;35.42;99258.78;4500451;31;34021;-75
2023/07/12 09:55:23;;;;;;;;;;;;;;;33.76;35.61;99246.50;4494261;31;32808;-76
2023/07/12 09:58:01;;;;;;;;;;;;;;;33.49;36.49;99253.25;4496394;31;33689;-75
2023/07/12 10:00:39;;;;;;;;;;;;;;;33.24;36.72;99255.25;4494832;31;34117;-76
2023/07/12 10:03:13;;;;;;;;;;;;;;;33.55;36.65;99255.22;4495520;31;34328;-76
2023/07/12 10:05:43;;;;;;;;;;;;;;;33.72;36.48;99249.75;4499951;31;33482;-75
2023/07/12 10:08:14;;;;;;;;;;;;;;;33.57;36.18;99242.47;4494952;31;34841;-77
2023/07/12 10:10:44;;;;;;;;;;;;;;;33.55;36.12;99240.94;4494487;31;34728;-76
2023/07/12 10:13:32;;;;;;;;;;;;;;;33.86;36.09;99238.19;4494755;31;33680;-75
2023/07/12 10:16:02;;;;;;;;;;;;;;;33.41;36.60;99239.00;4495202;31;33114;-76
2023/07/12 10:18:33;;;;;;;;;;;;;;;33.31;36.44;99231.19;4501567;31;34306;-75
2023/07/12 10:21:03;;;;;;;;;;;;;;;33.48;36.53;99242.66;4510530;31;34318;-78
2023/07/12 10:23:34;;;;;;;;;;;;;;;33.88;35.14;99236.16;4510512;31;34582;-75
2023/07/12 10:26:04;;;;;;;;;;;;;;;33.93;36.01;99228.38;4498409;31;33632;-76
2023/07/12 10:28:41;;;;;;;;;;;;;;;34.10;35.60;99228.25;4499803;31;34893;-76
2023/07/12 10:31:22;;;;;;;;;;;;;;;34.30;34.71;99225.84;4502401;31;34534;-76
2023/07/12 10:33:56;;;;;;;;;;;;;;;34.13;34.55;99222.50;4494700;31;34631;-76
2023/07/12 10:36:25;;;;;;;;;;;;;;;34.28;34.47;99217.94;4498306;31;33081;-75
2023/07/12 10:38:57;;;;;;;;;;;;;;;34.57;33.96;99210.91;4493719;31;33611;-76
2023/07/12 10:41:27;;;;;;;;;;;;;;;34.70;34.51;99194.09;4499033;31;35011;-76
2023/07/12 10:43:58;;;;;;;;;;;;;;;34.82;34.37;99192.59;4504517;31;34209;-75
2023/07/12 10:46:33;;;;;;;;;;;;;;;34.63;34.55;99185.94;4501674;31;33012;-76
2023/07/12 10:49:14;;;;;;;;;;;;;;;34.57;34.15;99186.66;4493375;31;34474;-75
2023/07/12 10:51:45;;;;;;;;;;;;;;;34.64;35.04;99198.38;4497018;31;34407;-75
2023/07/12 10:54:39;;;;;;;;;;;;;;;35.08;34.55;99199.31;4500344;31;34843;-76
2023/07/12 10:57:23;;;;;;;;;;;;;;;35.17;34.08;99196.34;4498693;31;33403;-75
2023/07/12 10:59:59;;;;;;;;;;;;;;;35.77;33.55;99206.91;4505507;31;33284;-75
2023/07/12 11:02:33;;;;;;;;;;;;;;;35.75;32.26;99209.78;4510051;31;33691;-77
2023/07/12 11:05:13;;;;;;;;;;;;;;;36.16;32.32;99209.06;4494582;31;33795;-76
2023/07/12 11:07:44;;;;;;;;;;;;;;;36.41;32.08;99209.44;4492898;31;32657;-75
2023/07/12 11:10:18;;;;;;;;;;;;;;;36.57;31.74;99204.75;4497843;31;33737;-77
2023/07/12 11:12:53;;;;;;;;;;;;;;;36.73;31.36;99207.16;4493695;31;33299;-75
2023/07/12 11:15:23;;;;;;;;;;;;;;;36.76;31.90;99216.72;4497687;31;33926;-77
2023/07/12 11:18:02;;;;;;;;;;;;;;;36.50;32.13;99208.22;4493903;31;32798;-75
2023/07/12 11:20:35;;;;;;;;;;;;;;;35.57;33.12;99210.22;4493887;31;34170;-76
2023/07/12 11:23:18;;;;;;;;;;;;;;;35.48;33.46;99214.06;4498708;31;33829;-75
2023/07/12 11:25:57;;;;;;;;;;;;;;;35.47;33.82;99220.47;4494215;31;34278;-75
2023/07/12 11:28:39;;;;;;;;;;;;;;;35.25;33.87;99220.50;4500339;31;33848;-76
2023/07/12 11:31:26;;;;;;;;;;;;;;;35.48;33.95;99223.00;4495834;31;33897;-75
2023/07/12 11:34:08;;;;;;;;;;;;;;;35.56;33.56;99222.03;4494312;31;33805;-74
2023/07/12 11:36:39;;;;;;;;;;;;;;;34.97;34.19;99230.31;4495153;31;33827;-76
2023/07/12 11:39:17;;;;;;;;;;;;;;;35.22;34.70;99234.34;4498394;31;33331;-74
2023/07/12 11:41:52;;;;;;;;;;;;;;;35.41;33.69;99227.50;4493266;31;34547;-75
2023/07/12 11:44:21;;;;;;;;;;;;;;;35.48;33.91;99222.16;4493180;31;33703;-76
2023/07/12 11:46:52;;;;;;;;;;;;;;;36.13;33.47;99224.84;4492665;31;34998;-75
2023/07/12 11:49:22;;;;;;;;;;;;;;;36.53;33.64;99226.78;4493507;31;34196;-76
2023/07/12 11:52:03;;;;;;;;;;;;;;;36.69;32.44;99219.38;4498092;31;34240;-75
2023/07/12 11:54:34;;;;;;;;;;;;;;;36.64;31.95;99222.69;4493447;31;35468;-77
2023/07/12 11:57:05;;;;;;;;;;;;;;;36.28;32.00;99218.28;4496003;31;34244;-75
2023/07/12 11:59:36;;;;;;;;;;;;;;;36.04;32.47;99222.25;4493804;31;33093;-76
2023/07/12 12:02:06;;;;;;;;;;;;;;;35.97;32.70;99218.66;4499330;31;33203;-77
2023/07/12 12:04:36;;;;;;;;;;;;;;;36.01;31.69;99224.53;4500489;31;33444;-76
2023/07/12 12:07:08;;;;;;;;;;;;;;;36.26;31.74;99220.34;4498735;31;34559;-75
2023/07/12 12:09:37;;;;;;;;;;;;;;;36.49;31.93;99220.09;4503336;31;33197;-76
2023/07/12 12:12:07;;;;;;;;;;;;;;;36.30;30.91;99227.03;4502961;31;33983;-76
2023/07/12 12:14:39;;;;;;;;;;;;;;;36.52;31.54;99222.38;4500388;31;33891;-76
2023/07/12 12:17:08;;;;;;;;;;;;;;;36.68;31.81;99223.09;4500249;31;33548;-76
2023/07/12 12:19:44;;;;;;;;;;;;;;;36.86;30.98;99226.09;4495410;31;32916;-77
2023/07/12 12:22:15;;;;;;;;;;;;;;;36.41;31.58;99219.41;4495309;31;34586;-76
2023/07/12 12:24:49;;;;;;;;;;;;;;;36.24;31.04;99218.88;4496595;31;34026;-75
2023/07/12 12:27:19;;;;;;;;;;;;;;;36.07;31.31;99232.66;4502258;31;34930;-76
2023/07/12 12:29:50;;;;;;;;;;;;;;;35.55;31.96;99220.38;4495000;31;32779;-75
2023/07/12 12:32:40;;;;;;;;;;;;;;;35.49;32.26;99215.72;4496387;31;33875;-75
2023/07/12 12:35:13;;;;;;;;;;;;;;;35.74;32.30;99210.81;4495759;31;33626;-76
2023/07/12 12:37:47;;;;;;;;;;;;;;;35.56;32.51;99205.84;4495516;31;33382;-77
2023/07/12 12:40:17;;;;;;;;;;;;;;;35.98;31.81;99214.97;4499575;31;33728;-76
2023/07/12 12:42:54;;;;;;;;;;;;;;;35.44;32.78;99204.69;4495262;31;35803;-75
2023/07/12 12:45:22;;;;;;;;;;;;;;;35.59;32.74;99205.47;4495679;31;34025;-75
2023/07/12 12:47:53;;;;;;;;;;;;;;;35.56;32.57;99205.00;4495644;31;33873;-76
2023/07/12 12:50:22;;;;;;;;;;;;;;;35.66;32.82;99195.56;4495504;31;33463;-76
2023/07/12 12:53:05;;;;;;;;;;;;;;;35.76;32.88;99186.31;4500071;31;34659;-75
2023/07/12 12:55:54;;;;;;;;;;;;;;;36.32;31.98;99186.34;4464391;32;33545;-75
2023/07/12 12:58:25;;;;;;;;;;;;;;;36.03;31.76;99179.28;4476018;32;33833;-75
2023/07/12 13:01:14;;;;;;;;;;;;;;;35.70;32.16;99193.34;4467770;32;32880;-77
2023/07/12 13:03:51;;;;;;;;;;;;;;;35.71;32.19;99178.81;4463107;32;34004;-76
2023/07/12 13:06:24;;;;;;;;;;;;;;;35.18;32.79;99173.75;4466068;32;34641;-76
2023/07/12 13:08:55;;;;;;;;;;;;;;;35.60;32.43;99182.06;4476504;32;33716;-76
2023/07/12 13:11:27;;;;;;;;;;;;;;;35.58;32.82;99184.06;4464560;32;33270;-74
2023/07/12 13:13:59;;;;;;;;;;;;;;;35.52;32.75;99176.75;4477587;31;34420;-75
2023/07/12 13:16:50;;;;;;;;;;;;;;;35.29;32.89;99176.97;4471148;32;33738;-77
2023/07/12 13:19:22;;;;;;;;;;;;;;;35.27;33.11;99174.44;4463256;32;32554;-75